createdAt,value
2022-11-14T00:00:51.400Z,27.80
2022-11-14T00:03:38.104Z,26.50
2022-11-14T00:06:24.713Z,27.10
2022-11-14T00:09:11.308Z,29.90
2022-11-14T00:11:57.745Z,27.90
2022-11-14T00:14:44.420Z,24.20
2022-11-14T00:17:30.889Z,24.30
2022-11-14T00:20:17.270Z,26.10
2022-11-14T00:23:03.460Z,29.50
2022-11-14T00:25:50.114Z,26.60
2022-11-14T00:28:36.906Z,28.20
2022-11-14T00:31:23.329Z,28.70
2022-11-14T00:34:11.923Z,31.60
2022-11-14T00:36:58.987Z,32.00
2022-11-14T00:39:45.760Z,30.20
2022-11-14T00:42:33.023Z,26.90
2022-11-14T00:45:19.469Z,31.60
2022-11-14T00:48:06.239Z,34.00
2022-11-14T00:50:52.491Z,26.90
2022-11-14T00:53:39.402Z,26.70
2022-11-14T00:56:25.803Z,27.80
2022-11-14T00:59:13.594Z,27.50
2022-11-14T01:02:00.264Z,21.30
2022-11-14T01:04:46.524Z,20.10
2022-11-14T01:07:33.120Z,19.10
2022-11-14T01:10:19.940Z,18.50
2022-11-14T01:13:06.324Z,16.30
2022-11-14T01:15:54.992Z,14.40
2022-11-14T01:18:42.047Z,17.50
2022-11-14T01:21:28.819Z,15.20
2022-11-14T01:24:15.534Z,16.00
2022-11-14T01:27:02.415Z,14.20
2022-11-14T01:29:49.023Z,19.10
2022-11-14T01:32:35.569Z,22.40
2022-11-14T01:35:22.159Z,17.90
2022-11-14T01:38:14.617Z,19.10
2022-11-14T01:41:01.670Z,15.30
2022-11-14T01:43:47.986Z,16.80
2022-11-14T01:46:38.744Z,15.60
2022-11-14T01:49:36.271Z,18.80
2022-11-14T01:52:27.889Z,26.10
2022-11-14T01:55:14.358Z,22.50
2022-11-14T01:58:00.954Z,18.50
2022-11-14T02:00:47.979Z,21.40
2022-11-14T02:03:38.074Z,15.80
2022-11-14T02:06:28.689Z,18.90
2022-11-14T02:09:15.171Z,20.10
2022-11-14T02:12:06.142Z,26.10
2022-11-14T02:14:57.246Z,32.00
2022-11-14T02:17:44.722Z,32.60
2022-11-14T02:20:36.210Z,29.10
2022-11-14T02:23:30.730Z,27.60
2022-11-14T02:26:21.508Z,25.40
2022-11-14T02:29:10.542Z,30.10
2022-11-14T02:31:57.088Z,24.30
2022-11-14T02:34:43.811Z,24.40
2022-11-14T02:37:30.368Z,30.90
2022-11-14T02:40:17.268Z,26.90
2022-11-14T02:43:03.811Z,26.50
2022-11-14T02:45:52.682Z,30.00
2022-11-14T02:48:39.030Z,30.30
2022-11-14T02:51:25.560Z,33.80
2022-11-14T02:54:11.840Z,29.10
2022-11-14T02:56:58.873Z,28.90
2022-11-14T02:59:45.408Z,29.00
2022-11-14T03:02:32.088Z,26.40
2022-11-14T03:05:18.416Z,27.30
2022-11-14T03:08:05.128Z,23.20
2022-11-14T03:10:51.537Z,28.40
2022-11-14T03:13:38.235Z,27.10
2022-11-14T03:16:24.867Z,36.70
2022-11-14T03:19:11.744Z,26.80
2022-11-14T03:21:58.009Z,21.30
2022-11-14T03:24:44.440Z,18.40
2022-11-14T03:27:31.079Z,16.30
2022-11-14T03:30:18.206Z,16.50
2022-11-14T03:33:05.397Z,17.70
2022-11-14T03:35:52.795Z,17.20
2022-11-14T03:38:39.992Z,20.20
2022-11-14T03:41:26.505Z,16.50
2022-11-14T03:44:13.439Z,15.30
2022-11-14T03:47:00.251Z,16.80
2022-11-14T03:49:46.704Z,18.00
2022-11-14T03:52:33.182Z,19.60
2022-11-14T03:55:19.930Z,16.30
2022-11-14T03:58:10.531Z,16.90
2022-11-14T04:00:57.318Z,12.30
2022-11-14T04:03:44.224Z,16.60
2022-11-14T04:06:31.340Z,14.70
2022-11-14T04:09:17.900Z,17.00
2022-11-14T04:12:04.668Z,15.40
2022-11-14T04:14:51.228Z,14.90
2022-11-14T04:17:39.915Z,15.30
2022-11-14T04:20:27.264Z,17.00
2022-11-14T04:23:13.712Z,13.10
2022-11-14T04:26:00.149Z,16.20
2022-11-14T04:28:46.606Z,17.80
2022-11-14T04:31:33.563Z,20.20
2022-11-14T04:34:20.149Z,18.90
2022-11-14T04:37:06.976Z,20.50
2022-11-14T04:39:54.620Z,15.60
2022-11-14T04:42:40.775Z,17.60
2022-11-14T04:45:27.741Z,18.50
2022-11-14T04:48:14.802Z,18.80
2022-11-14T04:51:01.099Z,17.60
2022-11-14T04:53:47.812Z,19.90
2022-11-14T04:56:34.384Z,21.20
2022-11-14T04:59:21.280Z,18.80
2022-11-14T05:02:07.779Z,24.30
2022-11-14T05:04:54.219Z,22.30
2022-11-14T05:07:41.139Z,15.40
2022-11-14T05:10:27.948Z,20.40
2022-11-14T05:13:14.385Z,30.10
2022-11-14T05:16:01.742Z,14.10
2022-11-14T05:18:48.122Z,21.40
2022-11-14T05:21:34.677Z,20.50
2022-11-14T05:24:22.319Z,21.20
2022-11-14T05:27:08.995Z,18.40
2022-11-14T05:29:56.415Z,21.70
2022-11-14T05:32:43.148Z,21.60
2022-11-14T05:35:30.415Z,19.40
2022-11-14T05:38:16.803Z,26.10
2022-11-14T05:41:09.792Z,27.20
2022-11-14T05:43:57.133Z,34.30
2022-11-14T05:46:43.792Z,49.20
2022-11-14T05:49:30.316Z,62.80
2022-11-14T05:52:17.323Z,60.10
2022-11-14T05:55:04.180Z,55.00
2022-11-14T05:57:51.369Z,41.90
2022-11-14T06:00:44.230Z,36.30
2022-11-14T06:03:33.348Z,39.00
2022-11-14T06:25:52.552Z,15.90
2022-11-14T06:28:39.245Z,19.10
2022-11-14T06:31:26.770Z,17.10
2022-11-14T06:34:13.665Z,16.30
2022-11-14T06:37:01.294Z,15.00
2022-11-14T06:39:47.789Z,20.90
2022-11-14T06:42:34.431Z,21.10
2022-11-14T06:45:21.118Z,19.60
2022-11-14T06:48:08.684Z,16.70
2022-11-14T06:50:56.842Z,17.30
2022-11-14T06:53:44.647Z,18.60
2022-11-14T06:56:31.696Z,32.60
2022-11-14T06:59:18.696Z,35.80
2022-11-14T07:02:05.769Z,45.00
2022-11-14T07:04:58.599Z,40.80
2022-11-14T07:07:46.263Z,43.50
2022-11-14T07:10:33.314Z,43.80
2022-11-14T07:13:20.135Z,32.50
2022-11-14T07:16:07.010Z,35.50
2022-11-14T07:18:54.041Z,38.10
2022-11-14T07:21:40.594Z,37.10
2022-11-14T07:24:26.723Z,24.40
2022-11-14T07:27:14.207Z,23.20
2022-11-14T07:30:00.884Z,16.30
2022-11-14T07:32:55.364Z,22.60
2022-11-14T07:35:42.374Z,28.10
2022-11-14T07:38:32.284Z,36.80
2022-11-14T07:41:19.526Z,24.50
2022-11-14T07:44:06.165Z,29.20
2022-11-14T07:46:53.905Z,22.30
2022-11-14T07:49:40.465Z,24.70
2022-11-14T07:52:27.819Z,34.90
2022-11-14T07:55:14.631Z,29.00
2022-11-14T07:58:04.494Z,22.40
2022-11-14T08:00:51.287Z,20.20
2022-11-14T08:03:44.046Z,20.50
2022-11-14T08:06:32.448Z,27.40
2022-11-14T08:09:19.357Z,37.30
2022-11-14T08:12:06.812Z,32.20
2022-11-14T08:14:53.964Z,27.80
2022-11-14T08:17:43.198Z,25.50
2022-11-14T08:20:30.124Z,25.10
2022-11-14T08:23:17.089Z,33.40
2022-11-14T08:26:03.766Z,30.30
2022-11-14T08:28:54.546Z,34.90
2022-11-14T08:31:41.021Z,34.40
2022-11-14T08:34:29.769Z,33.30
2022-11-14T08:37:16.453Z,40.00
2022-11-14T08:40:05.342Z,34.80
2022-11-14T08:42:52.200Z,28.60
2022-11-14T08:45:39.321Z,37.40
2022-11-14T08:48:26.187Z,30.20
2022-11-14T08:51:12.550Z,23.30
2022-11-14T08:54:00.758Z,29.90
2022-11-14T08:56:48.086Z,26.00
2022-11-14T08:59:34.580Z,17.90
2022-11-14T09:02:21.646Z,21.90
2022-11-14T09:05:10.863Z,19.40
2022-11-14T09:07:58.854Z,23.70
2022-11-14T09:10:45.818Z,27.60
2022-11-14T09:13:35.779Z,31.50
2022-11-14T09:16:22.551Z,26.60
2022-11-14T09:19:09.403Z,27.50
2022-11-14T09:21:56.392Z,48.30
2022-11-14T09:24:43.222Z,37.10
2022-11-14T09:27:29.777Z,27.70
2022-11-14T09:30:16.878Z,31.60
2022-11-14T09:33:11.513Z,30.00
2022-11-14T09:36:06.674Z,40.70
2022-11-14T09:38:54.124Z,31.90
2022-11-14T09:42:21.840Z,32.40
2022-11-14T09:45:15.741Z,32.90
2022-11-14T09:48:09.743Z,35.10
2022-11-14T09:51:09.713Z,42.10
2022-11-14T09:54:05.212Z,29.60
2022-11-14T09:56:52.352Z,23.10
2022-11-14T09:59:39.220Z,25.30
2022-11-14T10:02:34.714Z,22.50
2022-11-14T10:05:46.541Z,19.70
2022-11-14T10:08:53.208Z,21.00
2022-11-14T10:15:00.059Z,19.70
2022-11-14T10:18:09.941Z,19.60
2022-11-14T10:21:18.304Z,17.00
2022-11-14T10:24:29.589Z,19.60
2022-11-14T10:27:31.265Z,17.50
2022-11-14T10:30:20.112Z,21.50
2022-11-14T10:33:09.966Z,19.80
2022-11-14T10:36:06.535Z,23.00
2022-11-14T10:39:09.846Z,18.10
2022-11-14T10:42:07.464Z,20.00
2022-11-14T10:45:04.616Z,24.90
2022-11-14T10:51:05.383Z,16.50
2022-11-14T10:53:58.858Z,16.40
2022-11-14T10:56:55.761Z,21.40
2022-11-14T10:59:43.381Z,19.40
2022-11-14T11:02:48.690Z,16.20
2022-11-14T11:05:47.372Z,23.60
2022-11-14T11:09:00.822Z,29.90
2022-11-14T11:12:09.356Z,28.90
2022-11-14T11:15:16.641Z,32.40
2022-11-14T11:18:06.295Z,31.00
2022-11-14T11:21:12.576Z,29.10
2022-11-14T11:29:33.717Z,29.40
2022-11-14T11:32:26.751Z,28.60
2022-11-14T11:35:16.594Z,23.20
2022-11-14T11:38:05.465Z,26.70
2022-11-14T11:40:57.258Z,23.30
2022-11-14T11:44:02.118Z,22.50
2022-11-14T11:47:02.131Z,24.30
2022-11-14T11:49:54.211Z,23.20
2022-11-14T11:52:54.832Z,58.50
2022-11-14T11:55:45.346Z,27.90
2022-11-14T11:58:46.131Z,25.30
2022-11-14T12:01:33.337Z,24.60
2022-11-14T12:04:19.758Z,28.00
2022-11-14T12:07:16.952Z,22.70
2022-11-14T12:10:14.240Z,26.60
2022-11-14T12:13:10.979Z,27.80
2022-11-14T12:19:04.655Z,29.20
2022-11-14T12:22:07.466Z,27.30
2022-11-14T12:25:29.821Z,27.20
2022-11-14T12:28:49.930Z,30.90
2022-11-14T12:31:39.275Z,23.80
2022-11-14T12:34:38.549Z,24.50
2022-11-14T12:37:51.291Z,23.40
2022-11-14T12:40:50.170Z,25.30
2022-11-14T12:43:43.043Z,20.80
2022-11-14T12:47:09.315Z,28.30
2022-11-14T12:49:56.706Z,28.10
2022-11-14T12:52:49.096Z,33.10
2022-11-14T12:55:36.911Z,26.90
2022-11-14T12:58:31.858Z,34.10
2022-11-14T13:01:42.135Z,45.00
2022-11-14T13:05:08.789Z,41.60
2022-11-14T13:08:32.935Z,31.40
2022-11-14T13:11:50.943Z,37.60
2022-11-14T13:15:17.927Z,39.00
2022-11-14T13:18:33.536Z,39.40
2022-11-14T13:21:45.573Z,47.60
2022-11-14T13:25:11.519Z,66.50
2022-11-14T13:28:53.530Z,39.80
2022-11-14T13:31:47.475Z,44.50
2022-11-14T13:35:00.711Z,43.80
2022-11-14T13:37:49.450Z,38.80
2022-11-14T13:41:24.776Z,50.40
2022-11-14T13:44:36.836Z,40.60
2022-11-14T13:47:49.580Z,39.80
2022-11-14T13:50:40.546Z,38.90
2022-11-14T13:53:29.751Z,42.60
2022-11-14T13:56:44.152Z,37.10
2022-11-14T13:59:48.513Z,44.50
2022-11-14T14:03:07.628Z,40.60
2022-11-14T14:06:16.330Z,44.00
2022-11-14T14:09:22.910Z,46.80
2022-11-14T14:12:24.445Z,43.70
2022-11-14T14:15:12.341Z,40.30
2022-11-14T14:18:18.069Z,39.70
2022-11-14T14:21:24.764Z,41.00
2022-11-14T14:24:36.116Z,42.90
2022-11-14T14:27:22.945Z,36.60
2022-11-14T14:30:15.699Z,36.80
2022-11-14T14:33:08.707Z,42.90
2022-11-14T14:35:56.709Z,42.00
2022-11-14T14:38:45.130Z,47.80
2022-11-14T14:41:33.729Z,45.50
2022-11-14T14:44:26.051Z,44.80
2022-11-14T14:47:32.165Z,41.10
2022-11-14T14:50:37.284Z,38.10
2022-11-14T14:53:32.286Z,39.10
2022-11-14T14:56:22.630Z,51.00
2022-11-14T14:59:17.841Z,41.80
2022-11-14T15:02:11.840Z,38.10
2022-11-14T15:05:01.532Z,42.80
2022-11-14T15:07:51.191Z,42.80
2022-11-14T15:10:38.910Z,42.40
2022-11-14T15:13:30.237Z,42.80
2022-11-14T15:16:17.256Z,43.50
2022-11-14T15:19:06.238Z,40.90
2022-11-14T15:22:20.213Z,42.70
2022-11-14T15:25:12.815Z,46.50
2022-11-14T15:28:00.409Z,58.70
2022-11-14T15:31:02.034Z,89.30
2022-11-14T15:34:23.206Z,62.50
2022-11-14T15:37:16.557Z,65.20
2022-11-14T15:40:21.486Z,77.60
2022-11-14T15:43:39.831Z,52.10
2022-11-14T15:46:26.369Z,57.60
2022-11-14T15:49:21.434Z,67.10
2022-11-14T15:52:34.015Z,68.40
2022-11-14T15:55:24.445Z,59.60
2022-11-14T15:58:29.291Z,76.30
2022-11-14T16:01:23.288Z,64.30
2022-11-14T16:04:19.361Z,68.10
2022-11-14T16:07:06.730Z,70.10
2022-11-14T16:09:53.228Z,69.40
2022-11-14T16:12:39.776Z,82.30
2022-11-14T16:15:28.048Z,71.40
2022-11-14T16:18:14.802Z,66.30
2022-11-14T16:21:01.428Z,62.10
2022-11-14T16:23:54.206Z,56.50
2022-11-14T16:26:44.044Z,53.30
2022-11-14T16:29:31.016Z,57.70
2022-11-14T16:32:20.981Z,58.00
2022-11-14T16:35:14.559Z,54.10
2022-11-14T16:38:01.456Z,53.80
2022-11-14T16:40:48.219Z,57.00
2022-11-14T16:43:36.009Z,66.30
2022-11-14T16:46:25.070Z,70.70
2022-11-14T16:49:16.669Z,68.10
2022-11-14T16:52:07.189Z,72.40
2022-11-14T16:54:54.200Z,59.30
2022-11-14T16:57:42.544Z,71.00
2022-11-14T17:00:29.289Z,60.60
2022-11-14T17:03:16.431Z,66.60
2022-11-14T17:06:09.236Z,60.10
2022-11-14T17:08:59.418Z,66.10
2022-11-14T17:11:47.317Z,61.40
2022-11-14T17:14:34.043Z,63.10
2022-11-14T17:17:21.166Z,60.20
2022-11-14T17:20:09.446Z,59.50
2022-11-14T17:22:58.283Z,60.20
2022-11-14T17:26:09.101Z,61.00
2022-11-14T17:28:56.108Z,60.30
2022-11-14T17:31:46.850Z,66.00
2022-11-14T17:34:36.488Z,63.50
2022-11-14T17:37:23.009Z,63.20
2022-11-14T17:40:15.468Z,56.50
2022-11-14T17:43:02.312Z,53.00
2022-11-14T17:45:56.854Z,45.60
2022-11-14T17:48:44.892Z,47.60
2022-11-14T17:51:32.341Z,42.40
2022-11-14T17:54:19.540Z,42.40
2022-11-14T17:57:06.841Z,40.50
2022-11-14T17:59:55.846Z,35.30
2022-11-14T18:02:42.592Z,30.70
2022-11-14T18:05:29.196Z,28.40
2022-11-14T18:08:17.641Z,36.00
2022-11-14T18:11:08.485Z,39.80
2022-11-14T18:13:56.328Z,34.30
2022-11-14T18:17:11.230Z,33.90
2022-11-14T18:19:53.329Z,28.10
2022-11-14T18:22:44.134Z,27.10
2022-11-14T18:25:31.808Z,33.40
2022-11-14T18:28:19.258Z,31.20
2022-11-14T18:31:10.882Z,33.40
2022-11-14T18:33:58.885Z,29.10
2022-11-14T18:36:45.193Z,33.70
2022-11-14T18:39:32.366Z,33.30
2022-11-14T18:42:19.161Z,34.80
2022-11-14T18:45:08.738Z,34.90
2022-11-14T18:47:56.328Z,29.90
2022-11-14T18:50:42.899Z,29.70
2022-11-14T18:53:36.773Z,28.20
2022-11-14T18:56:25.525Z,31.50
2022-11-14T18:59:12.700Z,34.40
2022-11-14T19:02:00.962Z,38.00
2022-11-14T19:04:48.058Z,35.00
2022-11-14T19:07:36.616Z,33.20
2022-11-14T19:10:23.236Z,34.90
2022-11-14T19:13:11.349Z,38.10
2022-11-14T19:16:06.840Z,32.10
2022-11-14T19:18:54.273Z,34.20
2022-11-14T19:21:46.630Z,30.70
2022-11-14T19:24:33.218Z,30.40
2022-11-14T19:27:22.198Z,36.50
2022-11-14T19:30:11.502Z,34.00
2022-11-14T19:32:58.211Z,35.10
2022-11-14T19:35:44.649Z,34.50
2022-11-14T19:38:31.320Z,34.40
2022-11-14T19:41:22.890Z,31.50
2022-11-14T19:44:09.709Z,32.90
2022-11-14T19:46:55.998Z,37.00
2022-11-14T19:49:42.961Z,30.80
2022-11-14T19:52:30.765Z,41.60
2022-11-14T19:55:19.306Z,32.30
2022-11-14T19:58:07.525Z,31.90
2022-11-14T20:01:08.782Z,31.80
2022-11-14T20:04:02.091Z,33.30
2022-11-14T20:06:49.762Z,31.70
2022-11-14T20:09:39.096Z,37.10
2022-11-14T20:12:25.659Z,38.40
2022-11-14T20:15:12.289Z,39.70
2022-11-14T20:17:59.969Z,34.20
2022-11-14T20:20:46.740Z,39.00
2022-11-14T20:23:35.140Z,40.70
2022-11-14T20:26:22.395Z,41.10
2022-11-14T20:29:08.920Z,39.10
2022-11-14T20:31:55.671Z,41.50
2022-11-14T20:34:42.363Z,45.10
2022-11-14T20:37:29.641Z,49.10
2022-11-14T20:40:16.546Z,48.50
2022-11-14T20:43:08.180Z,58.80
2022-11-14T20:46:07.684Z,50.80
2022-11-14T20:48:55.118Z,46.70
2022-11-14T20:51:42.253Z,45.30
2022-11-14T20:54:29.407Z,45.20
2022-11-14T20:57:17.618Z,41.10
2022-11-14T21:00:06.519Z,40.40
2022-11-14T21:02:53.784Z,42.40
2022-11-14T21:05:41.641Z,37.30
2022-11-14T21:08:29.884Z,37.70
2022-11-14T21:11:18.407Z,39.30
2022-11-14T21:14:09.185Z,38.80
2022-11-14T21:16:56.080Z,34.60
2022-11-14T21:19:43.334Z,34.40
2022-11-14T21:22:29.987Z,37.00
2022-11-14T21:25:16.861Z,33.40
2022-11-14T21:28:03.496Z,35.30
2022-11-14T21:30:50.294Z,32.00
2022-11-14T21:33:37.263Z,37.30
2022-11-14T21:39:31.614Z,30.50
2022-11-14T21:42:18.881Z,33.50
2022-11-14T21:45:07.207Z,31.80
2022-11-14T21:47:54.069Z,35.10
2022-11-14T21:50:40.487Z,33.80
2022-11-14T21:53:28.380Z,34.60
2022-11-14T21:56:20.101Z,35.30
2022-11-14T21:59:14.932Z,38.10
2022-11-14T22:02:21.299Z,35.60
2022-11-14T22:05:08.031Z,36.40
2022-11-14T22:07:54.736Z,40.40
2022-11-14T22:10:41.299Z,39.80
2022-11-14T22:13:30.501Z,38.20
2022-11-14T22:16:20.904Z,39.20
2022-11-14T22:19:07.673Z,37.10
2022-11-14T22:21:54.578Z,38.90
2022-11-14T22:24:41.086Z,37.60
2022-11-14T22:27:27.795Z,40.70
2022-11-14T22:30:14.441Z,37.90
2022-11-14T22:33:01.335Z,32.20
2022-11-14T22:35:48.162Z,29.40
2022-11-14T22:38:36.110Z,30.70
2022-11-14T22:41:33.269Z,29.80
2022-11-14T22:44:20.237Z,31.50
2022-11-14T22:47:06.751Z,34.10
2022-11-14T22:49:53.310Z,31.50
2022-11-14T22:52:39.687Z,26.00
2022-11-14T22:55:26.567Z,24.00
2022-11-14T22:58:13.307Z,24.70
2022-11-14T23:01:01.141Z,22.40
2022-11-14T23:03:48.894Z,27.00
2022-11-14T23:06:35.295Z,32.00
2022-11-14T23:09:21.640Z,30.70
2022-11-14T23:12:08.293Z,29.70
2022-11-14T23:14:54.880Z,28.90
2022-11-14T23:17:41.352Z,24.80
2022-11-14T23:20:28.541Z,24.60
2022-11-14T23:23:16.039Z,29.40
2022-11-14T23:26:08.557Z,37.00
2022-11-14T23:28:55.295Z,30.60
2022-11-14T23:31:41.916Z,27.20
2022-11-14T23:34:29.187Z,30.90
2022-11-14T23:37:15.827Z,30.10
2022-11-14T23:40:02.115Z,34.70
2022-11-14T23:42:48.510Z,27.00
2022-11-14T23:45:34.863Z,28.50
2022-11-14T23:48:22.943Z,29.50
2022-11-14T23:51:10.069Z,26.20
2022-11-14T23:53:56.607Z,26.20
2022-11-14T23:56:43.411Z,28.30
2022-11-14T23:59:30.100Z,30.70
